Latest Coastal Weather Observations for Cape Willoughby

IDS60701

Issued at 10:35 am CST Wednesday 30 July 2014 (issued every 10 minutes, with the page automatically refreshed every 10 minutes)

About coastal observations | Map of coastal stations | Coastal observations for SA | Marine services | Other Formats
Station Details ID: 022803 Name: CAPE WILLOUGHBY Lat: -35.84 Lon: 138.13 Height: 55.0 m
Data from the previous 72 hours. | See also: Recent months at Cape Willoughby
Date/Time
CST
Temp

°C
Wind Pressure Rain
since 9am
mm
Weather Cloud Vis
km
Sea
Height
m
Swell
Dir
 
Speed
knots
Gust
knots
hPa Trend Height
m
Period
s
Dir
30/10:30am 15.5 NW 20 28 1015.4 - 0.0 - - - - - - -
30/10:00am 15.6 NW 16 23 1015.4 - 0.0 - - - - - - -
30/09:56am 15.5 NW 17 28 1015.5 - 0.0 - - - - - - -
30/09:30am 15.5 NW 18 24 1015.7 - 0.0 - - - - - - -
30/09:00am 15.0 NW 17 24 1015.7 - 0.4 - - - - - - -
30/08:30am 14.6 NW 14 18 1015.7 - 0.4 - - - - - - -
30/08:00am 14.2 NW 13 17 1015.7 - 0.4 - - - - - - -
30/07:30am 13.9 NW 15 19 1015.9 - 0.4 - - - - - - -
30/07:00am 14.0 NW 12 17 1015.6 - 0.4 - - - - - - -
30/06:30am 14.1 WNW 17 23 1015.5 - 0.4 - - - - - - -
30/06:00am 14.1 NW 16 21 1015.3 - 0.4 - - - - - - -
30/05:30am 14.0 NW 15 22 1014.7 - 0.4 - - - - - - -
30/05:00am 14.1 NW 14 19 1014.6 - 0.4 - - - - - - -
30/04:30am 13.8 NW 15 20 1014.6 - 0.4 - - - - - - -
30/04:00am 13.7 NW 13 18 1014.7 - 0.4 - - - - - - -
30/03:30am 13.7 NW 16 21 1015.0 - 0.4 - - - - - - -
30/03:18am 14.0 WNW 16 27 1015.2 - 0.2 - - - - - - -
30/03:00am 14.1 WNW 16 22 1015.4 - 0.2 - - - - - - -
30/02:30am 14.3 NW 14 18 1015.5 - 0.2 - - - - - - -
30/02:00am 14.3 NW 13 17 1015.4 - 0.2 - - - - - - -
30/01:30am 14.0 NW 14 18 1015.7 - 0.2 - - - - - - -
30/01:00am 14.2 NW 12 16 1015.8 - 0.2 - - - - - - -
30/12:30am 13.8 NW 11 14 1015.9 - 0.2 - - - - - - -
30/12:00am 13.7 NW 11 14 1016.1 - 0.2 - - - - - - -
 
Date/Time
CST
Temp

°C
Wind Pressure Rain
since 9am
mm
Weather Cloud Vis
km
Sea
Height
m
Swell
Dir
 
Speed
knots
Gust
knots
hPa Trend Height
m
Period
s
Dir
29/11:30pm 14.0 WNW 13 18 1016.1 - 0.2 - - - - - - -
29/11:00pm 13.9 WNW 15 19 1016.1 - 0.2 - - - - - - -
29/10:30pm 14.0 WNW 13 19 1016.2 - 0.2 - - - - - - -
29/10:00pm 14.1 WNW 14 19 1016.2 - 0.2 - - - - - - -
29/09:30pm 14.4 WNW 17 24 1015.8 - 0.2 - - - - - - -
29/09:00pm 14.6 WNW 15 19 1015.5 - 0.2 - - - - - - -
29/08:30pm 14.5 WNW 18 22 1015.5 - 0.2 - - - - - - -
29/08:00pm 14.6 WNW 18 23 1015.1 - 0.2 - - - - - - -
29/07:30pm 14.6 WNW 13 17 1015.3 - 0.2 - - - - - - -
29/07:00pm 14.7 WNW 14 19 1014.8 - 0.2 - - - - - - -
29/06:30pm 14.9 WNW 15 21 1014.6 - 0.2 - - - - - - -
29/06:00pm 14.8 NW 11 15 1014.4 - 0.2 - - - - - - -
29/05:30pm 15.0 WNW 13 19 1014.0 - 0.2 - - - - - - -
29/05:00pm 15.0 W 5 11 1014.0 - 0.2 - - - - - - -
29/04:30pm 15.1 WNW 11 17 1013.7 - 0.2 - - - - - - -
29/04:00pm 15.5 WNW 17 24 1013.3 - 0.2 - - - - - - -
29/03:30pm 16.1 WNW 19 31 1013.0 - 0.2 - - - - - - -
29/03:24pm 16.0 WNW 16 27 1012.9 - 0.2 - - - - - - -
29/03:00pm 16.3 WNW 16 22 1012.9 - 0.2 - - - - - - -
29/02:34pm 16.4 WNW 21 34 1012.6 - 0.2 - - - - - - -
29/02:30pm 16.6 WNW 21 30 1012.8 - 0.2 - - - - - - -
29/02:13pm 16.5 WNW 20 30 1012.6 - 0.2 - - - - - - -
29/02:00pm 16.1 WNW 21 30 1012.6 - 0.2 - - - - - - -
29/01:34pm 16.7 WNW 19 29 1012.5 - 0.2 - - - - - - -
29/01:30pm 16.6 WNW 20 28 1012.4 - 0.2 - - - - - - -
29/01:00pm 16.2 WNW 25 33 1012.5 - 0.2 - - - - - - -
29/12:31pm 16.5 NW 20 30 1012.3 - 0.2 - - - - - - -
29/12:30pm 16.4 NW 20 27 1012.4 - 0.2 - - - - - - -
29/12:00pm 15.4 NW 22 30 1013.1 - 0.2 - - - - - - -
29/11:30am 15.4 NW 18 30 1013.3 - 0.2 - - - - - - -
29/11:00am 14.8 NW 22 33 1013.1 - 0.2 - - - - - - -
29/10:41am 15.1 NW 19 30 1013.2 - 0.2 - - - - - - -
29/10:30am 14.8 NW 20 30 1013.2 - 0.2 - - - - - - -
29/10:00am 14.9 NW 17 23 1013.2 - 0.0 - - - - - - -
29/09:30am 14.4 NW 16 23 1013.1 - 0.0 - - - - - - -
29/09:00am 14.1 NW 17 22 1012.8 - 2.6 - - - - - - -
29/08:30am 13.9 NW 18 25 1012.8 - 2.6 - - - - - - -
29/08:00am 13.6 NW 15 20 1012.5 - 2.6 - - - - - - -
29/07:30am 13.2 NW 14 19 1012.5 - 2.6 - - - - - - -
29/07:00am 13.0 NW 17 22 1012.4 - 2.6 - - - - - - -
29/06:30am 13.0 NW 21 27 1012.1 - 1.0 - - - - - - -
29/06:00am 13.1 NNW 20 29 1011.6 - 0.6 Rain - - - - - -
29/05:30am 13.1 NW 20 26 1011.5 - 0.2 - - - - - - -
29/05:00am 13.1 NW 18 25 1011.8 - 0.2 - - - - - - -
29/04:30am 13.2 NW 19 29 1012.1 - 0.0 - - - - - - -
29/04:00am 13.4 NNW 19 27 1011.7 - 0.0 - - - - - - -
29/03:33am 13.5 NNW 20 31 1011.6 - 0.0 - - - - - - -
29/03:30am 13.4 NNW 19 24 1011.8 - 0.0 - - - - - - -
29/03:04am 13.4 NNW 22 33 1011.5 - 0.0 - - - - - - -
29/03:00am 13.4 NNW 23 33 1011.4 - 0.0 - - - - - - -
29/02:55am 13.5 NNW 21 33 1011.5 - 0.0 - - - - - - -
29/02:30am 13.4 NNW 24 31 1011.5 - 0.0 - - - - - - -
29/02:08am 13.5 NNW 23 34 1011.6 - 0.0 - - - - - - -
29/02:00am 13.5 NNW 24 31 1011.4 - 0.0 - - - - - - -
29/01:30am 13.5 NNW 22 30 1012.0 - 0.0 - - - - - - -
29/01:00am 13.6 NNW 24 32 1012.2 - 0.0 - - - - - - -
29/12:30am 13.8 NW 27 35 1012.3 - 0.0 - - - - - - -
29/12:16am 13.8 NW 25 38 1012.6 - 0.0 - - - - - - -
29/12:00am 13.8 NW 23 31 1012.7 - 0.0 - - - - - - -
 
Date/Time
CST
Temp

°C
Wind Pressure Rain
since 9am
mm
Weather Cloud Vis
km
Sea
Height
m
Swell
Dir
 
Speed
knots
Gust
knots
hPa Trend Height
m
Period
s
Dir
28/11:30pm 13.8 NNW 25 32 1013.1 - 0.0 - - - - - - -
28/11:00pm 13.4 NNW 20 27 1013.3 - 0.0 - - - - - - -
28/10:30pm 13.6 NNW 20 26 1013.7 - 0.0 - - - - - - -
28/10:00pm 13.7 NNW 20 27 1013.8 - 0.0 - - - - - - -
28/09:30pm 13.7 NNW 19 27 1013.9 - 0.0 - - - - - - -
28/09:00pm 13.8 NNW 21 27 1014.0 - 0.0 - - - - - - -
28/08:30pm 13.5 NNW 20 26 1013.9 - 0.0 - - - - - - -
28/08:00pm 13.5 NNW 21 27 1013.9 - 0.0 - - - - - - -
28/07:30pm 13.6 NNW 22 29 1013.8 - 0.0 - - - - - - -
28/07:01pm 13.7 NNW 21 32 1013.5 - 0.0 - - - - - - -
28/07:00pm 13.8 NNW 20 27 1013.4 - 0.0 - - - - - - -
28/06:30pm 13.9 NNW 15 19 1013.8 - 0.0 - - - - - - -
28/06:00pm 13.7 NNW 15 21 1013.7 - 0.0 - - - - - - -
28/05:30pm 13.7 NNW 15 22 1013.9 - 0.0 - - - - - - -
28/05:00pm 14.2 NNW 18 24 1013.6 - 0.0 - - - - - - -
28/04:30pm 14.8 NNW 18 24 1013.6 - 0.0 - - - - - - -
28/04:22pm 14.9 NNW 19 30 1013.6 - 0.0 - - - - - - -
28/04:00pm 15.0 NW 18 24 1013.8 - 0.0 - - - - - - -
28/03:30pm 15.3 NNW 18 22 1013.6 - 0.0 - - - - - - -
28/03:00pm 15.4 NNW 20 27 1013.3 - 0.0 - - - - - - -
28/02:30pm 15.6 NW 20 30 1013.3 - 0.0 - - - - - - -
28/02:00pm 15.9 NNW 22 30 1013.6 - 0.0 - - - - - - -
28/01:30pm 15.7 NW 21 28 1014.1 - 0.0 - - - - - - -
28/01:00pm 15.8 NW 20 26 1014.7 - 0.0 - - - - - - -
28/12:30pm 15.1 NW 22 27 1015.5 - 0.0 - - - - - - -
28/12:00pm 15.7 NW 18 26 1015.6 - 0.0 - - - - - - -
28/11:30am 15.3 NW 19 26 1016.0 - 0.0 - - - - - - -
28/11:00am 14.7 NW 20 28 1016.3 - 0.0 - - - - - - -
28/10:30am 14.6 NW 22 27 1016.2 - 0.0 - - - - - - -
28/10:00am 14.6 NW 19 25 1016.4 - 0.0 - - - - - - -
28/09:30am 13.9 NW 19 24 1016.7 - 0.0 - - - - - - -
28/09:00am 13.8 NW 17 21 1016.6 - 0.0 - - - - - - -
28/08:30am 13.2 NW 16 20 1016.6 - 0.0 - - - - - - -
28/08:00am 12.9 NW 15 19 1016.4 - 0.0 - - - - - - -
28/07:30am 12.5 NW 14 19 1016.2 - 0.0 - - - - - - -
28/07:00am 12.3 NW 11 14 1015.9 - 0.0 - - - - - - -
28/06:30am 12.1 NW 12 14 1015.8 - 0.0 - - - - - - -
28/06:00am 11.6 NW 10 12 1015.8 - 0.0 - - - - - - -
28/05:30am 11.6 NW 9 10 1015.9 - 0.0 - - - - - - -
28/05:00am 11.7 NW 9 10 1015.9 - 0.0 - - - - - - -
28/04:30am 11.9 NW 8 9 1016.1 - 0.0 - - - - - - -
28/04:00am 12.1 NW 9 11 1016.3 - 0.0 - - - - - - -
28/03:30am 12.0 NW 11 13 1016.1 - 0.0 - - - - - - -
28/03:00am 12.2 NW 12 13 1016.1 - 0.0 - - - - - - -
28/02:30am 11.8 NW 11 13 1016.1 - 0.0 - - - - - - -
28/02:00am 12.1 NW 11 13 1016.1 - 0.0 - - - - - - -
28/01:30am 12.3 NW 11 13 1016.4 - 0.0 - - - - - - -
28/01:00am 12.4 NW 12 15 1016.6 - 0.0 - - - - - - -
28/12:30am 12.5 NW 12 15 1016.9 - 0.0 - - - - - - -
28/12:00am 12.4 NW 13 15 1016.9 - 0.0 - - - - - - -
 
Date/Time
CST
Temp

°C
Wind Pressure Rain
since 9am
mm
Weather Cloud Vis
km
Sea
Height
m
Swell
Dir
 
Speed
knots
Gust
knots
hPa Trend Height
m
Period
s
Dir
27/11:30pm 12.5 NW 13 15 1016.9 - 0.0 - - - - - - -
27/11:00pm 12.7 NW 15 17 1016.9 - 0.0 - - - - - - -
27/10:30pm 12.9 NW 15 16 1017.4 - 0.0 - - - - - - -
27/10:00pm 13.3 NNW 16 20 1017.3 - 0.0 - - - - - - -
27/09:30pm 13.7 NNW 18 23 1017.3 - 0.0 - - - - - - -
27/09:00pm 13.7 NNW 20 25 1017.3 - 0.0 - - - - - - -
27/08:30pm 13.9 NNW 21 27 1017.2 - 0.0 - - - - - - -
27/08:11pm 14.2 NNW 21 31 1017.0 - 0.0 - - - - - - -
27/08:00pm 14.3 NNW 23 31 1016.9 - 0.0 - - - - - - -
27/07:30pm 14.6 NNW 24 33 1017.0 - 0.0 - - - - - - -
27/07:00pm 14.7 NNW 25 31 1016.9 - 0.0 - - - - - - -
27/06:30pm 14.1 NNW 21 27 1016.9 - 0.0 - - - - - - -
27/06:00pm 14.2 NNW 24 29 1016.9 - 0.0 - - - - - - -
27/05:30pm 14.0 NNW 23 30 1017.2 - 0.0 - - - - - - -
27/05:00pm 13.9 NNW 22 31 1016.9 - 0.0 - - - - - - -
27/04:30pm 13.8 NNW 22 29 1017.2 - 0.0 - - - - - - -
27/04:00pm 13.9 NNW 22 28 1017.1 - 0.0 - - - - - - -
27/03:30pm 14.1 NNW 22 28 1017.1 - 0.0 - - - - - - -
27/03:00pm 14.1 NNW 24 31 1017.0 - 0.0 - - - - - - -
27/02:30pm 13.9 NNW 27 34 1016.9 - 0.0 - - - - - - -
27/02:00pm 13.6 NNW 27 32 1017.0 - 0.0 - - - - - - -
27/01:30pm 13.7 NNW 32 37 1017.1 - 0.0 - - - - - - -
27/01:00pm 13.7 NNW 29 40 1017.9 - 0.0 - - - - - - -
27/12:59pm 13.7 NNW 29 40 1018.0 - 0.0 - - - - - - -
27/12:30pm 13.6 NNW 28 37 1018.2 - 0.0 - - - - - - -
27/12:12pm 13.8 NNW 22 33 1019.0 - 0.0 - - - - - - -
27/12:00pm 14.0 NNW 24 29 1019.4 - 0.0 - - - - - - -
27/11:30am 13.7 NNW 25 32 1019.9 - 0.0 - - - - - - -
27/11:00am 13.4 N 23 28 1020.8 - 0.0 - - - - - - -

Other Formats:

Comma delimited format used in spreadsheet applications
http://www.bom.gov.au/fwo/IDS60701/IDS60701.94822.axf

JavaScript Object Notation format (JSON) in row-major order
http://www.bom.gov.au/fwo/IDS60701/IDS60701.94822.json